sensor_id;sensor_type;location;lat;lon;timestamp;P1;durP1;ratioP1;P2;durP2;ratioP2
8317;SDS011;4196;48.926;8.964;2023-02-08T00:00:14;16.67;;;7.93;;
8317;SDS011;4196;48.926;8.964;2023-02-08T00:03:01;17.47;;;8.97;;
8317;SDS011;4196;48.926;8.964;2023-02-08T00:05:47;21.23;;;9.50;;
8317;SDS011;4196;48.926;8.964;2023-02-08T00:08:35;18.97;;;10.87;;
8317;SDS011;4196;48.926;8.964;2023-02-08T00:11:22;18.63;;;10.63;;
8317;SDS011;4196;48.926;8.964;2023-02-08T00:14:08;21.73;;;9.13;;
8317;SDS011;4196;48.926;8.964;2023-02-08T00:16:54;20.13;;;9.13;;
8317;SDS011;4196;48.926;8.964;2023-02-08T00:19:41;16.77;;;10.20;;
8317;SDS011;4196;48.926;8.964;2023-02-08T00:22:27;13.90;;;8.70;;
8317;SDS011;4196;48.926;8.964;2023-02-08T00:25:14;16.93;;;9.07;;
8317;SDS011;4196;48.926;8.964;2023-02-08T00:28:00;15.53;;;9.50;;
8317;SDS011;4196;48.926;8.964;2023-02-08T00:30:49;25.57;;;10.43;;
8317;SDS011;4196;48.926;8.964;2023-02-08T00:33:37;17.17;;;9.70;;
8317;SDS011;4196;48.926;8.964;2023-02-08T00:36:23;24.37;;;11.03;;
8317;SDS011;4196;48.926;8.964;2023-02-08T00:39:10;20.37;;;10.33;;
8317;SDS011;4196;48.926;8.964;2023-02-08T00:41:56;15.80;;;9.23;;
8317;SDS011;4196;48.926;8.964;2023-02-08T00:44:42;27.67;;;10.37;;
8317;SDS011;4196;48.926;8.964;2023-02-08T00:47:28;22.63;;;10.50;;
8317;SDS011;4196;48.926;8.964;2023-02-08T00:50:15;22.47;;;10.70;;
8317;SDS011;4196;48.926;8.964;2023-02-08T00:53:01;21.70;;;10.37;;
8317;SDS011;4196;48.926;8.964;2023-02-08T00:55:51;22.37;;;11.10;;
8317;SDS011;4196;48.926;8.964;2023-02-08T00:58:39;22.67;;;11.47;;
8317;SDS011;4196;48.926;8.964;2023-02-08T01:01:26;19.33;;;10.83;;
8317;SDS011;4196;48.926;8.964;2023-02-08T01:04:12;23.33;;;10.80;;
8317;SDS011;4196;48.926;8.964;2023-02-08T01:06:58;21.27;;;9.43;;
8317;SDS011;4196;48.926;8.964;2023-02-08T01:09:44;21.87;;;9.97;;
8317;SDS011;4196;48.926;8.964;2023-02-08T01:12:31;18.17;;;10.53;;
8317;SDS011;4196;48.926;8.964;2023-02-08T01:15:17;18.17;;;8.90;;
8317;SDS011;4196;48.926;8.964;2023-02-08T01:18:04;20.10;;;10.97;;
8317;SDS011;4196;48.926;8.964;2023-02-08T01:20:51;20.83;;;9.97;;
8317;SDS011;4196;48.926;8.964;2023-02-08T01:23:37;20.30;;;10.10;;
8317;SDS011;4196;48.926;8.964;2023-02-08T01:26:24;19.70;;;10.50;;
8317;SDS011;4196;48.926;8.964;2023-02-08T01:29:11;19.60;;;9.97;;
8317;SDS011;4196;48.926;8.964;2023-02-08T01:31:58;20.67;;;10.13;;
8317;SDS011;4196;48.926;8.964;2023-02-08T01:34:47;18.20;;;9.20;;
8317;SDS011;4196;48.926;8.964;2023-02-08T01:37:34;22.07;;;9.53;;
8317;SDS011;4196;48.926;8.964;2023-02-08T01:40:21;18.40;;;9.83;;
8317;SDS011;4196;48.926;8.964;2023-02-08T01:43:30;21.70;;;10.47;;
8317;SDS011;4196;48.926;8.964;2023-02-08T01:46:40;17.90;;;10.33;;
8317;SDS011;4196;48.926;8.964;2023-02-08T01:49:34;23.93;;;10.93;;
8317;SDS011;4196;48.926;8.964;2023-02-08T01:52:22;21.97;;;9.97;;
8317;SDS011;4196;48.926;8.964;2023-02-08T01:55:16;21.30;;;10.80;;
8317;SDS011;4196;48.926;8.964;2023-02-08T01:58:11;20.10;;;9.37;;
8317;SDS011;4196;48.926;8.964;2023-02-08T02:01:01;15.40;;;8.23;;
8317;SDS011;4196;48.926;8.964;2023-02-08T02:03:48;18.83;;;10.13;;
8317;SDS011;4196;48.926;8.964;2023-02-08T02:06:36;18.33;;;8.57;;
8317;SDS011;4196;48.926;8.964;2023-02-08T02:09:30;19.87;;;9.77;;
8317;SDS011;4196;48.926;8.964;2023-02-08T02:12:18;22.40;;;10.20;;
8317;SDS011;4196;48.926;8.964;2023-02-08T02:15:07;17.03;;;8.80;;
8317;SDS011;4196;48.926;8.964;2023-02-08T02:17:54;16.87;;;9.60;;
8317;SDS011;4196;48.926;8.964;2023-02-08T02:27:35;17.17;;;8.80;;
8317;SDS011;4196;48.926;8.964;2023-02-08T02:30:30;15.57;;;8.50;;
8317;SDS011;4196;48.926;8.964;2023-02-08T02:39:58;19.50;;;10.00;;
8317;SDS011;4196;48.926;8.964;2023-02-08T02:46:12;17.97;;;8.43;;
8317;SDS011;4196;48.926;8.964;2023-02-08T02:52:24;17.73;;;9.17;;
8317;SDS011;4196;48.926;8.964;2023-02-08T02:55:19;20.00;;;9.47;;
8317;SDS011;4196;48.926;8.964;2023-02-08T02:58:10;21.97;;;10.70;;
8317;SDS011;4196;48.926;8.964;2023-02-08T03:01:01;26.07;;;10.47;;
8317;SDS011;4196;48.926;8.964;2023-02-08T03:03:49;16.90;;;10.17;;
8317;SDS011;4196;48.926;8.964;2023-02-08T03:06:40;20.13;;;10.27;;
8317;SDS011;4196;48.926;8.964;2023-02-08T03:12:38;20.87;;;10.10;;
8317;SDS011;4196;48.926;8.964;2023-02-08T03:33:49;18.87;;;9.10;;
8317;SDS011;4196;48.926;8.964;2023-02-08T03:36:42;18.20;;;9.43;;
8317;SDS011;4196;48.926;8.964;2023-02-08T03:39:32;20.70;;;9.83;;
8317;SDS011;4196;48.926;8.964;2023-02-08T03:42:22;13.37;;;7.70;;
8317;SDS011;4196;48.926;8.964;2023-02-08T03:45:14;17.30;;;9.43;;
8317;SDS011;4196;48.926;8.964;2023-02-08T03:48:05;19.53;;;9.40;;
8317;SDS011;4196;48.926;8.964;2023-02-08T03:50:56;22.43;;;9.57;;
8317;SDS011;4196;48.926;8.964;2023-02-08T03:53:46;16.90;;;8.67;;
8317;SDS011;4196;48.926;8.964;2023-02-08T03:56:37;19.40;;;9.93;;
8317;SDS011;4196;48.926;8.964;2023-02-08T03:59:31;19.23;;;12.00;;
8317;SDS011;4196;48.926;8.964;2023-02-08T04:02:26;18.07;;;9.20;;
8317;SDS011;4196;48.926;8.964;2023-02-08T04:05:16;18.50;;;10.27;;
8317;SDS011;4196;48.926;8.964;2023-02-08T04:08:05;15.77;;;8.43;;
8317;SDS011;4196;48.926;8.964;2023-02-08T04:10:52;16.90;;;8.23;;
8317;SDS011;4196;48.926;8.964;2023-02-08T04:13:39;15.60;;;8.17;;
8317;SDS011;4196;48.926;8.964;2023-02-08T04:16:25;13.33;;;8.40;;
8317;SDS011;4196;48.926;8.964;2023-02-08T04:19:12;13.50;;;8.60;;
8317;SDS011;4196;48.926;8.964;2023-02-08T04:21:58;16.17;;;7.10;;
8317;SDS011;4196;48.926;8.964;2023-02-08T04:24:45;18.17;;;9.30;;
8317;SDS011;4196;48.926;8.964;2023-02-08T04:27:31;19.00;;;8.77;;
8317;SDS011;4196;48.926;8.964;2023-02-08T04:30:19;16.57;;;8.30;;
8317;SDS011;4196;48.926;8.964;2023-02-08T04:33:05;18.00;;;8.73;;
8317;SDS011;4196;48.926;8.964;2023-02-08T04:35:52;15.57;;;9.03;;
8317;SDS011;4196;48.926;8.964;2023-02-08T04:38:38;15.50;;;8.80;;
8317;SDS011;4196;48.926;8.964;2023-02-08T04:41:24;18.00;;;8.63;;
8317;SDS011;4196;48.926;8.964;2023-02-08T04:44:11;14.97;;;8.47;;
8317;SDS011;4196;48.926;8.964;2023-02-08T04:46:57;17.63;;;8.27;;
8317;SDS011;4196;48.926;8.964;2023-02-08T04:49:44;18.83;;;8.80;;
8317;SDS011;4196;48.926;8.964;2023-02-08T04:52:31;13.03;;;8.23;;
8317;SDS011;4196;48.926;8.964;2023-02-08T04:55:17;16.00;;;8.80;;
8317;SDS011;4196;48.926;8.964;2023-02-08T04:58:04;20.33;;;8.63;;
8317;SDS011;4196;48.926;8.964;2023-02-08T05:00:50;15.47;;;8.73;;
8317;SDS011;4196;48.926;8.964;2023-02-08T05:03:36;17.97;;;8.90;;
8317;SDS011;4196;48.926;8.964;2023-02-08T05:06:22;16.50;;;8.50;;
8317;SDS011;4196;48.926;8.964;2023-02-08T05:09:09;19.13;;;8.83;;
8317;SDS011;4196;48.926;8.964;2023-02-08T05:11:55;18.83;;;9.93;;
8317;SDS011;4196;48.926;8.964;2023-02-08T05:14:41;19.50;;;9.17;;
8317;SDS011;4196;48.926;8.964;2023-02-08T05:17:28;23.70;;;10.00;;
8317;SDS011;4196;48.926;8.964;2023-02-08T05:20:14;12.20;;;8.90;;
8317;SDS011;4196;48.926;8.964;2023-02-08T05:23:01;14.57;;;7.37;;
8317;SDS011;4196;48.926;8.964;2023-02-08T05:25:47;19.73;;;8.63;;
8317;SDS011;4196;48.926;8.964;2023-02-08T05:28:34;17.80;;;8.67;;
8317;SDS011;4196;48.926;8.964;2023-02-08T05:31:22;19.73;;;9.60;;
8317;SDS011;4196;48.926;8.964;2023-02-08T05:34:09;14.00;;;7.80;;
8317;SDS011;4196;48.926;8.964;2023-02-08T05:36:57;15.93;;;8.47;;
8317;SDS011;4196;48.926;8.964;2023-02-08T05:39:44;16.40;;;7.57;;
8317;SDS011;4196;48.926;8.964;2023-02-08T05:42:30;14.70;;;7.80;;
8317;SDS011;4196;48.926;8.964;2023-02-08T05:45:16;16.80;;;7.90;;
8317;SDS011;4196;48.926;8.964;2023-02-08T05:48:03;18.07;;;8.47;;
8317;SDS011;4196;48.926;8.964;2023-02-08T05:50:49;14.90;;;8.80;;
8317;SDS011;4196;48.926;8.964;2023-02-08T05:53:36;19.20;;;9.63;;
8317;SDS011;4196;48.926;8.964;2023-02-08T05:56:22;18.70;;;10.00;;
8317;SDS011;4196;48.926;8.964;2023-02-08T05:59:09;18.63;;;9.87;;
8317;SDS011;4196;48.926;8.964;2023-02-08T06:01:55;18.73;;;10.07;;
8317;SDS011;4196;48.926;8.964;2023-02-08T06:04:45;21.10;;;10.17;;
8317;SDS011;4196;48.926;8.964;2023-02-08T06:07:32;23.40;;;10.03;;
8317;SDS011;4196;48.926;8.964;2023-02-08T06:10:18;22.43;;;12.83;;
8317;SDS011;4196;48.926;8.964;2023-02-08T06:13:05;20.47;;;10.53;;
8317;SDS011;4196;48.926;8.964;2023-02-08T06:15:51;20.00;;;9.90;;
8317;SDS011;4196;48.926;8.964;2023-02-08T06:18:37;17.40;;;9.37;;
8317;SDS011;4196;48.926;8.964;2023-02-08T06:21:24;18.97;;;10.13;;
8317;SDS011;4196;48.926;8.964;2023-02-08T06:24:11;19.03;;;8.80;;
8317;SDS011;4196;48.926;8.964;2023-02-08T06:26:58;22.87;;;10.73;;
8317;SDS011;4196;48.926;8.964;2023-02-08T06:29:45;16.80;;;8.97;;
8317;SDS011;4196;48.926;8.964;2023-02-08T06:32:32;21.00;;;10.60;;
8317;SDS011;4196;48.926;8.964;2023-02-08T06:35:18;21.83;;;11.23;;
8317;SDS011;4196;48.926;8.964;2023-02-08T06:38:05;18.97;;;10.73;;
8317;SDS011;4196;48.926;8.964;2023-02-08T06:40:51;18.83;;;9.97;;
8317;SDS011;4196;48.926;8.964;2023-02-08T06:43:38;20.77;;;10.97;;
8317;SDS011;4196;48.926;8.964;2023-02-08T06:46:26;23.33;;;11.03;;
8317;SDS011;4196;48.926;8.964;2023-02-08T06:49:12;17.07;;;10.53;;
8317;SDS011;4196;48.926;8.964;2023-02-08T06:51:59;18.00;;;9.10;;
8317;SDS011;4196;48.926;8.964;2023-02-08T06:54:45;18.60;;;9.70;;
8317;SDS011;4196;48.926;8.964;2023-02-08T06:57:32;20.83;;;11.30;;
8317;SDS011;4196;48.926;8.964;2023-02-08T07:00:18;20.30;;;9.47;;
8317;SDS011;4196;48.926;8.964;2023-02-08T07:03:05;18.80;;;9.27;;
8317;SDS011;4196;48.926;8.964;2023-02-08T07:05:51;23.93;;;10.73;;
8317;SDS011;4196;48.926;8.964;2023-02-08T07:08:49;20.20;;;9.53;;
8317;SDS011;4196;48.926;8.964;2023-02-08T07:11:36;20.93;;;10.43;;
8317;SDS011;4196;48.926;8.964;2023-02-08T07:14:23;17.93;;;10.03;;
8317;SDS011;4196;48.926;8.964;2023-02-08T07:17:10;20.20;;;10.73;;
8317;SDS011;4196;48.926;8.964;2023-02-08T07:19:57;23.77;;;11.77;;
8317;SDS011;4196;48.926;8.964;2023-02-08T07:22:44;29.43;;;12.40;;
8317;SDS011;4196;48.926;8.964;2023-02-08T07:25:30;17.93;;;9.37;;
8317;SDS011;4196;48.926;8.964;2023-02-08T07:28:17;21.97;;;10.87;;
8317;SDS011;4196;48.926;8.964;2023-02-08T07:31:07;17.87;;;8.87;;
8317;SDS011;4196;48.926;8.964;2023-02-08T07:33:55;18.97;;;9.60;;
8317;SDS011;4196;48.926;8.964;2023-02-08T07:36:41;22.37;;;9.73;;
8317;SDS011;4196;48.926;8.964;2023-02-08T07:39:27;19.20;;;10.60;;
8317;SDS011;4196;48.926;8.964;2023-02-08T07:42:16;22.23;;;10.23;;
8317;SDS011;4196;48.926;8.964;2023-02-08T07:45:13;20.33;;;10.83;;
8317;SDS011;4196;48.926;8.964;2023-02-08T07:47:59;22.10;;;11.17;;
8317;SDS011;4196;48.926;8.964;2023-02-08T07:50:46;26.07;;;9.70;;
8317;SDS011;4196;48.926;8.964;2023-02-08T07:53:32;20.63;;;9.93;;
8317;SDS011;4196;48.926;8.964;2023-02-08T07:56:19;19.77;;;9.40;;
8317;SDS011;4196;48.926;8.964;2023-02-08T07:59:06;16.90;;;9.50;;
8317;SDS011;4196;48.926;8.964;2023-02-08T08:01:52;21.03;;;11.00;;
8317;SDS011;4196;48.926;8.964;2023-02-08T08:04:39;20.63;;;10.67;;
8317;SDS011;4196;48.926;8.964;2023-02-08T08:07:25;16.80;;;9.43;;
8317;SDS011;4196;48.926;8.964;2023-02-08T08:10:12;16.83;;;9.33;;
8317;SDS011;4196;48.926;8.964;2023-02-08T08:12:58;20.80;;;10.07;;
8317;SDS011;4196;48.926;8.964;2023-02-08T08:15:45;26.33;;;10.80;;
8317;SDS011;4196;48.926;8.964;2023-02-08T08:18:32;23.23;;;10.50;;
8317;SDS011;4196;48.926;8.964;2023-02-08T08:21:18;20.50;;;9.40;;
8317;SDS011;4196;48.926;8.964;2023-02-08T08:24:05;21.47;;;9.13;;
8317;SDS011;4196;48.926;8.964;2023-02-08T08:26:52;18.53;;;8.13;;
8317;SDS011;4196;48.926;8.964;2023-02-08T08:29:38;19.00;;;9.13;;
8317;SDS011;4196;48.926;8.964;2023-02-08T08:32:25;17.33;;;8.87;;
8317;SDS011;4196;48.926;8.964;2023-02-08T08:35:11;14.80;;;9.13;;
8317;SDS011;4196;48.926;8.964;2023-02-08T08:37:58;18.93;;;9.00;;
8317;SDS011;4196;48.926;8.964;2023-02-08T08:40:44;21.37;;;9.87;;
8317;SDS011;4196;48.926;8.964;2023-02-08T08:43:31;18.10;;;9.10;;
8317;SDS011;4196;48.926;8.964;2023-02-08T08:46:17;17.60;;;8.80;;
8317;SDS011;4196;48.926;8.964;2023-02-08T08:49:04;21.90;;;10.13;;
8317;SDS011;4196;48.926;8.964;2023-02-08T08:51:50;21.43;;;8.67;;
8317;SDS011;4196;48.926;8.964;2023-02-08T08:54:37;22.77;;;10.03;;
8317;SDS011;4196;48.926;8.964;2023-02-08T08:57:24;16.73;;;10.20;;
8317;SDS011;4196;48.926;8.964;2023-02-08T09:00:11;21.37;;;8.50;;
8317;SDS011;4196;48.926;8.964;2023-02-08T09:02:58;18.10;;;9.13;;
8317;SDS011;4196;48.926;8.964;2023-02-08T09:05:45;15.10;;;8.07;;
8317;SDS011;4196;48.926;8.964;2023-02-08T09:08:32;18.63;;;10.37;;
8317;SDS011;4196;48.926;8.964;2023-02-08T09:11:18;18.07;;;7.90;;
8317;SDS011;4196;48.926;8.964;2023-02-08T09:14:05;18.87;;;9.13;;
8317;SDS011;4196;48.926;8.964;2023-02-08T09:16:51;18.27;;;8.57;;
8317;SDS011;4196;48.926;8.964;2023-02-08T09:19:38;19.73;;;8.63;;
8317;SDS011;4196;48.926;8.964;2023-02-08T09:22:25;14.83;;;7.93;;
8317;SDS011;4196;48.926;8.964;2023-02-08T09:25:11;16.53;;;7.87;;
8317;SDS011;4196;48.926;8.964;2023-02-08T09:27:58;20.77;;;8.70;;
8317;SDS011;4196;48.926;8.964;2023-02-08T09:30:44;18.33;;;8.17;;
8317;SDS011;4196;48.926;8.964;2023-02-08T09:33:31;14.87;;;8.77;;
8317;SDS011;4196;48.926;8.964;2023-02-08T09:36:18;16.57;;;8.17;;
8317;SDS011;4196;48.926;8.964;2023-02-08T09:39:16;14.93;;;7.23;;
8317;SDS011;4196;48.926;8.964;2023-02-08T09:45:31;15.40;;;7.47;;
8317;SDS011;4196;48.926;8.964;2023-02-08T09:48:34;16.37;;;8.00;;
8317;SDS011;4196;48.926;8.964;2023-02-08T09:54:27;15.07;;;7.77;;
8317;SDS011;4196;48.926;8.964;2023-02-08T09:57:19;12.43;;;7.70;;
8317;SDS011;4196;48.926;8.964;2023-02-08T10:00:14;14.03;;;7.03;;
8317;SDS011;4196;48.926;8.964;2023-02-08T10:03:05;14.83;;;6.23;;
8317;SDS011;4196;48.926;8.964;2023-02-08T10:06:06;19.37;;;8.23;;
8317;SDS011;4196;48.926;8.964;2023-02-08T10:08:56;13.80;;;6.40;;
8317;SDS011;4196;48.926;8.964;2023-02-08T10:26:47;17.00;;;6.47;;
8317;SDS011;4196;48.926;8.964;2023-02-08T10:30:27;12.00;;;6.50;;
8317;SDS011;4196;48.926;8.964;2023-02-08T10:36:11;14.07;;;6.23;;
8317;SDS011;4196;48.926;8.964;2023-02-08T10:39:02;12.90;;;5.77;;
8317;SDS011;4196;48.926;8.964;2023-02-08T10:41:59;11.63;;;5.83;;
8317;SDS011;4196;48.926;8.964;2023-02-08T10:45:07;14.53;;;6.77;;
8317;SDS011;4196;48.926;8.964;2023-02-08T10:48:12;11.63;;;5.60;;
8317;SDS011;4196;48.926;8.964;2023-02-08T10:51:05;11.43;;;5.67;;
8317;SDS011;4196;48.926;8.964;2023-02-08T10:53:57;9.33;;;6.53;;
8317;SDS011;4196;48.926;8.964;2023-02-08T10:56:57;15.50;;;8.03;;
8317;SDS011;4196;48.926;8.964;2023-02-08T10:59:55;11.03;;;6.73;;
8317;SDS011;4196;48.926;8.964;2023-02-08T11:02:46;12.97;;;6.33;;
8317;SDS011;4196;48.926;8.964;2023-02-08T11:05:34;15.90;;;7.80;;
8317;SDS011;4196;48.926;8.964;2023-02-08T11:08:23;12.73;;;7.17;;
8317;SDS011;4196;48.926;8.964;2023-02-08T11:11:11;12.77;;;7.27;;
8317;SDS011;4196;48.926;8.964;2023-02-08T11:14:06;14.87;;;7.10;;
8317;SDS011;4196;48.926;8.964;2023-02-08T11:16:55;11.33;;;6.07;;
8317;SDS011;4196;48.926;8.964;2023-02-08T11:19:42;13.43;;;6.50;;
8317;SDS011;4196;48.926;8.964;2023-02-08T11:22:31;13.70;;;6.50;;
8317;SDS011;4196;48.926;8.964;2023-02-08T11:25:29;14.43;;;6.17;;
8317;SDS011;4196;48.926;8.964;2023-02-08T11:28:28;13.37;;;7.43;;
8317;SDS011;4196;48.926;8.964;2023-02-08T11:31:17;16.93;;;6.90;;
8317;SDS011;4196;48.926;8.964;2023-02-08T11:36:51;13.77;;;6.37;;
8317;SDS011;4196;48.926;8.964;2023-02-08T11:39:39;12.37;;;7.43;;
8317;SDS011;4196;48.926;8.964;2023-02-08T11:42:36;13.27;;;6.87;;
8317;SDS011;4196;48.926;8.964;2023-02-08T11:48:29;10.67;;;5.93;;
8317;SDS011;4196;48.926;8.964;2023-02-08T11:51:24;15.83;;;6.80;;
8317;SDS011;4196;48.926;8.964;2023-02-08T11:57:22;10.40;;;6.63;;
8317;SDS011;4196;48.926;8.964;2023-02-08T12:00:24;10.00;;;5.63;;
8317;SDS011;4196;48.926;8.964;2023-02-08T12:03:17;12.07;;;5.50;;
8317;SDS011;4196;48.926;8.964;2023-02-08T12:21:22;9.80;;;5.00;;
8317;SDS011;4196;48.926;8.964;2023-02-08T12:27:33;8.87;;;4.80;;
8317;SDS011;4196;48.926;8.964;2023-02-08T12:30:28;8.73;;;4.87;;
8317;SDS011;4196;48.926;8.964;2023-02-08T12:33:26;8.23;;;4.80;;
8317;SDS011;4196;48.926;8.964;2023-02-08T12:36:33;9.47;;;4.87;;
8317;SDS011;4196;48.926;8.964;2023-02-08T12:40:10;7.50;;;4.77;;
8317;SDS011;4196;48.926;8.964;2023-02-08T12:49:49;8.17;;;4.43;;
8317;SDS011;4196;48.926;8.964;2023-02-08T12:52:59;7.40;;;4.40;;
8317;SDS011;4196;48.926;8.964;2023-02-08T12:55:48;8.37;;;4.20;;
8317;SDS011;4196;48.926;8.964;2023-02-08T12:58:50;7.10;;;3.90;;
8317;SDS011;4196;48.926;8.964;2023-02-08T13:01:45;8.90;;;4.57;;
8317;SDS011;4196;48.926;8.964;2023-02-08T13:04:38;7.67;;;4.63;;
8317;SDS011;4196;48.926;8.964;2023-02-08T13:07:29;7.17;;;4.03;;
8317;SDS011;4196;48.926;8.964;2023-02-08T13:10:28;7.53;;;4.50;;
8317;SDS011;4196;48.926;8.964;2023-02-08T13:13:30;7.23;;;3.93;;
8317;SDS011;4196;48.926;8.964;2023-02-08T13:16:26;6.77;;;4.47;;
8317;SDS011;4196;48.926;8.964;2023-02-08T13:22:33;4.93;;;3.53;;
8317;SDS011;4196;48.926;8.964;2023-02-08T13:25:24;10.03;;;4.07;;
8317;SDS011;4196;48.926;8.964;2023-02-08T13:28:19;6.60;;;3.83;;
8317;SDS011;4196;48.926;8.964;2023-02-08T13:31:12;6.00;;;3.80;;
8317;SDS011;4196;48.926;8.964;2023-02-08T13:34:07;7.20;;;3.33;;
8317;SDS011;4196;48.926;8.964;2023-02-08T13:37:04;7.20;;;3.53;;
8317;SDS011;4196;48.926;8.964;2023-02-08T13:40:21;5.00;;;3.23;;
8317;SDS011;4196;48.926;8.964;2023-02-08T13:43:24;7.13;;;3.77;;
8317;SDS011;4196;48.926;8.964;2023-02-08T13:46:25;6.27;;;3.40;;
8317;SDS011;4196;48.926;8.964;2023-02-08T13:58:28;4.47;;;3.33;;
8317;SDS011;4196;48.926;8.964;2023-02-08T14:02:09;5.37;;;2.80;;
8317;SDS011;4196;48.926;8.964;2023-02-08T14:08:21;4.93;;;3.27;;
8317;SDS011;4196;48.926;8.964;2023-02-08T14:11:42;6.50;;;3.47;;
8317;SDS011;4196;48.926;8.964;2023-02-08T14:14:36;7.03;;;3.50;;
8317;SDS011;4196;48.926;8.964;2023-02-08T14:17:25;7.83;;;4.00;;
8317;SDS011;4196;48.926;8.964;2023-02-08T14:23:23;4.43;;;2.97;;
8317;SDS011;4196;48.926;8.964;2023-02-08T14:26:17;5.43;;;2.53;;
8317;SDS011;4196;48.926;8.964;2023-02-08T14:29:15;7.60;;;2.90;;
8317;SDS011;4196;48.926;8.964;2023-02-08T14:32:09;4.70;;;3.13;;
8317;SDS011;4196;48.926;8.964;2023-02-08T14:41:06;7.87;;;3.63;;
8317;SDS011;4196;48.926;8.964;2023-02-08T14:43:53;5.47;;;2.90;;
8317;SDS011;4196;48.926;8.964;2023-02-08T14:49:27;5.43;;;3.50;;
8317;SDS011;4196;48.926;8.964;2023-02-08T14:52:22;4.00;;;2.90;;
8317;SDS011;4196;48.926;8.964;2023-02-08T14:55:17;3.63;;;2.53;;
8317;SDS011;4196;48.926;8.964;2023-02-08T14:58:13;4.57;;;2.80;;
8317;SDS011;4196;48.926;8.964;2023-02-08T15:01:13;4.93;;;3.23;;
8317;SDS011;4196;48.926;8.964;2023-02-08T15:04:03;4.30;;;2.83;;
8317;SDS011;4196;48.926;8.964;2023-02-08T15:09:55;6.40;;;3.13;;
8317;SDS011;4196;48.926;8.964;2023-02-08T15:12:43;6.67;;;3.27;;
8317;SDS011;4196;48.926;8.964;2023-02-08T15:15:34;6.80;;;3.80;;
8317;SDS011;4196;48.926;8.964;2023-02-08T15:18:26;6.73;;;3.30;;
8317;SDS011;4196;48.926;8.964;2023-02-08T15:21:16;5.00;;;3.27;;
8317;SDS011;4196;48.926;8.964;2023-02-08T15:27:22;7.00;;;3.23;;
8317;SDS011;4196;48.926;8.964;2023-02-08T15:30:24;5.30;;;3.53;;
8317;SDS011;4196;48.926;8.964;2023-02-08T15:33:15;8.23;;;4.23;;
8317;SDS011;4196;48.926;8.964;2023-02-08T15:36:07;7.80;;;4.40;;
8317;SDS011;4196;48.926;8.964;2023-02-08T15:39:03;5.80;;;3.20;;
8317;SDS011;4196;48.926;8.964;2023-02-08T15:42:18;5.50;;;3.37;;
8317;SDS011;4196;48.926;8.964;2023-02-08T15:45:18;6.70;;;3.53;;
8317;SDS011;4196;48.926;8.964;2023-02-08T15:48:09;11.33;;;4.63;;
8317;SDS011;4196;48.926;8.964;2023-02-08T15:50:57;5.17;;;4.00;;
8317;SDS011;4196;48.926;8.964;2023-02-08T15:53:47;6.93;;;3.97;;
8317;SDS011;4196;48.926;8.964;2023-02-08T15:56:35;7.67;;;3.93;;
8317;SDS011;4196;48.926;8.964;2023-02-08T15:59:28;8.63;;;3.60;;
8317;SDS011;4196;48.926;8.964;2023-02-08T16:05:17;6.73;;;3.37;;
8317;SDS011;4196;48.926;8.964;2023-02-08T16:08:12;7.30;;;4.03;;
8317;SDS011;4196;48.926;8.964;2023-02-08T16:11:10;7.93;;;4.10;;
8317;SDS011;4196;48.926;8.964;2023-02-08T16:14:00;7.30;;;3.87;;
8317;SDS011;4196;48.926;8.964;2023-02-08T16:16:51;10.13;;;4.73;;
8317;SDS011;4196;48.926;8.964;2023-02-08T16:19:39;10.47;;;4.90;;
8317;SDS011;4196;48.926;8.964;2023-02-08T16:22:36;9.07;;;4.07;;
8317;SDS011;4196;48.926;8.964;2023-02-08T16:25:32;8.13;;;4.10;;
8317;SDS011;4196;48.926;8.964;2023-02-08T16:28:29;12.67;;;5.93;;
8317;SDS011;4196;48.926;8.964;2023-02-08T16:31:21;8.43;;;4.57;;
8317;SDS011;4196;48.926;8.964;2023-02-08T16:34:18;8.57;;;4.40;;
8317;SDS011;4196;48.926;8.964;2023-02-08T16:37:17;6.37;;;4.20;;
8317;SDS011;4196;48.926;8.964;2023-02-08T16:44:13;11.67;;;4.50;;
8317;SDS011;4196;48.926;8.964;2023-02-08T16:47:23;11.67;;;6.20;;
8317;SDS011;4196;48.926;8.964;2023-02-08T16:50:21;13.43;;;5.43;;
8317;SDS011;4196;48.926;8.964;2023-02-08T16:53:09;11.90;;;4.83;;
8317;SDS011;4196;48.926;8.964;2023-02-08T16:55:57;11.27;;;5.00;;
8317;SDS011;4196;48.926;8.964;2023-02-08T16:58:44;12.03;;;5.97;;
8317;SDS011;4196;48.926;8.964;2023-02-08T17:01:31;13.23;;;6.10;;
8317;SDS011;4196;48.926;8.964;2023-02-08T17:04:18;12.93;;;6.60;;
8317;SDS011;4196;48.926;8.964;2023-02-08T17:07:04;10.97;;;5.20;;
8317;SDS011;4196;48.926;8.964;2023-02-08T17:09:51;7.40;;;4.50;;
8317;SDS011;4196;48.926;8.964;2023-02-08T17:12:37;10.83;;;5.23;;
8317;SDS011;4196;48.926;8.964;2023-02-08T17:15:24;8.20;;;5.27;;
8317;SDS011;4196;48.926;8.964;2023-02-08T17:18:11;11.43;;;5.90;;
8317;SDS011;4196;48.926;8.964;2023-02-08T17:20:58;14.60;;;6.10;;
8317;SDS011;4196;48.926;8.964;2023-02-08T17:23:46;20.17;;;7.83;;
8317;SDS011;4196;48.926;8.964;2023-02-08T17:26:34;14.70;;;6.60;;
8317;SDS011;4196;48.926;8.964;2023-02-08T17:29:24;17.80;;;5.57;;
8317;SDS011;4196;48.926;8.964;2023-02-08T17:32:10;10.33;;;6.13;;
8317;SDS011;4196;48.926;8.964;2023-02-08T17:34:57;9.40;;;4.93;;
8317;SDS011;4196;48.926;8.964;2023-02-08T17:37:45;9.77;;;5.00;;
8317;SDS011;4196;48.926;8.964;2023-02-08T17:40:34;16.43;;;5.60;;
8317;SDS011;4196;48.926;8.964;2023-02-08T17:43:21;10.73;;;5.43;;
8317;SDS011;4196;48.926;8.964;2023-02-08T17:46:14;13.97;;;6.50;;
8317;SDS011;4196;48.926;8.964;2023-02-08T17:49:03;9.73;;;5.87;;
8317;SDS011;4196;48.926;8.964;2023-02-08T17:51:50;12.93;;;6.83;;
8317;SDS011;4196;48.926;8.964;2023-02-08T17:54:36;17.87;;;7.13;;
8317;SDS011;4196;48.926;8.964;2023-02-08T17:57:23;13.47;;;6.60;;
8317;SDS011;4196;48.926;8.964;2023-02-08T18:00:11;10.73;;;5.60;;
8317;SDS011;4196;48.926;8.964;2023-02-08T18:03:06;9.63;;;6.20;;
8317;SDS011;4196;48.926;8.964;2023-02-08T18:05:55;13.57;;;5.87;;
8317;SDS011;4196;48.926;8.964;2023-02-08T18:08:43;13.57;;;6.23;;
8317;SDS011;4196;48.926;8.964;2023-02-08T18:11:30;11.83;;;6.13;;
8317;SDS011;4196;48.926;8.964;2023-02-08T18:14:17;14.33;;;6.37;;
8317;SDS011;4196;48.926;8.964;2023-02-08T18:17:03;9.37;;;4.87;;
8317;SDS011;4196;48.926;8.964;2023-02-08T18:19:50;19.53;;;7.07;;
8317;SDS011;4196;48.926;8.964;2023-02-08T18:22:37;13.10;;;6.33;;
8317;SDS011;4196;48.926;8.964;2023-02-08T18:25:23;12.57;;;6.03;;
8317;SDS011;4196;48.926;8.964;2023-02-08T18:28:10;11.37;;;6.30;;
8317;SDS011;4196;48.926;8.964;2023-02-08T18:31:00;12.07;;;6.47;;
8317;SDS011;4196;48.926;8.964;2023-02-08T18:33:51;10.07;;;5.17;;
8317;SDS011;4196;48.926;8.964;2023-02-08T18:36:38;13.73;;;6.23;;
8317;SDS011;4196;48.926;8.964;2023-02-08T18:39:24;11.33;;;5.40;;
8317;SDS011;4196;48.926;8.964;2023-02-08T18:42:11;13.53;;;5.73;;
8317;SDS011;4196;48.926;8.964;2023-02-08T18:44:58;11.03;;;5.93;;
8317;SDS011;4196;48.926;8.964;2023-02-08T18:47:44;13.43;;;6.83;;
8317;SDS011;4196;48.926;8.964;2023-02-08T18:50:31;12.63;;;6.50;;
8317;SDS011;4196;48.926;8.964;2023-02-08T18:53:17;20.30;;;7.63;;
8317;SDS011;4196;48.926;8.964;2023-02-08T18:56:04;20.60;;;7.43;;
8317;SDS011;4196;48.926;8.964;2023-02-08T18:58:52;14.03;;;7.50;;
8317;SDS011;4196;48.926;8.964;2023-02-08T19:01:40;12.83;;;7.20;;
8317;SDS011;4196;48.926;8.964;2023-02-08T19:04:27;15.33;;;7.47;;
8317;SDS011;4196;48.926;8.964;2023-02-08T19:07:13;15.07;;;7.60;;
8317;SDS011;4196;48.926;8.964;2023-02-08T19:10:00;16.33;;;7.73;;
8317;SDS011;4196;48.926;8.964;2023-02-08T19:12:47;15.07;;;7.77;;
8317;SDS011;4196;48.926;8.964;2023-02-08T19:15:34;14.13;;;7.10;;
8317;SDS011;4196;48.926;8.964;2023-02-08T19:18:22;24.60;;;10.50;;
8317;SDS011;4196;48.926;8.964;2023-02-08T19:21:09;29.73;;;11.87;;
8317;SDS011;4196;48.926;8.964;2023-02-08T19:23:57;20.43;;;10.27;;
8317;SDS011;4196;48.926;8.964;2023-02-08T19:26:45;17.67;;;8.73;;
8317;SDS011;4196;48.926;8.964;2023-02-08T19:29:32;17.97;;;9.73;;
8317;SDS011;4196;48.926;8.964;2023-02-08T19:32:19;16.83;;;7.40;;
8317;SDS011;4196;48.926;8.964;2023-02-08T19:35:06;16.87;;;7.50;;
8317;SDS011;4196;48.926;8.964;2023-02-08T19:37:53;14.37;;;6.20;;
8317;SDS011;4196;48.926;8.964;2023-02-08T19:40:39;17.80;;;8.97;;
8317;SDS011;4196;48.926;8.964;2023-02-08T19:43:26;16.33;;;8.97;;